Time;durP1;ratioP1;P1;durP2;ratioP2;P2;SDS_P1;SDS_P2;PMS_P1;PMS_P2;Temp;Humidity;BMP_temperature;BMP_pressure;BME280_temperature;BME280_humidity;BME280_pressure;Samples;Min_cycle;Max_cycle;Signal;HPM_P1;HPM_P2
2021/05/05 00:02:15;;;;;;;9.43;2.43;;;;;;;;;;13008838;22;20644;-76
2021/05/05 00:07:18;;;;;;;8.90;2.27;;;;;;;;;;13000899;22;20277;-78
2021/05/05 00:12:21;;;;;;;10.37;2.37;;;;;;;;;;12965552;22;20177;-78
2021/05/05 00:17:23;;;;;;;13.47;2.53;;;;;;;;;;12943940;22;20182;-77
2021/05/05 00:22:26;;;;;;;12.83;2.77;;;;;;;;;;12943747;22;20206;-77
2021/05/05 00:27:29;;;;;;;12.83;2.63;;;;;;;;;;12944609;22;20534;-77
2021/05/05 00:32:32;;;;;;;8.80;2.17;;;;;;;;;;12962442;22;20664;-77
2021/05/05 00:37:35;;;;;;;6.93;1.90;;;;;;;;;;12967275;22;20182;-77
2021/05/05 00:42:38;;;;;;;4.67;1.97;;;;;;;;;;12963618;22;20198;-76
2021/05/05 00:47:40;;;;;;;6.50;2.17;;;;;;;;;;12963710;22;20174;-77
2021/05/05 00:52:43;;;;;;;6.63;2.30;;;;;;;;;;12963837;22;20178;-76
2021/05/05 00:57:45;;;;;;;6.27;2.07;;;;;;;;;;12944580;22;20513;-77
2021/05/05 01:02:47;;;;;;;6.57;1.90;;;;;;;;;;12940602;22;20300;-76
2021/05/05 01:07:50;;;;;;;8.47;2.40;;;;;;;;;;12964866;22;20183;-76
2021/05/05 01:12:54;;;;;;;6.63;2.23;;;;;;;;;;12941049;22;20413;-76
2021/05/05 01:17:56;;;;;;;10.07;2.40;;;;;;;;;;12963925;22;20178;-76
2021/05/05 01:22:59;;;;;;;8.70;2.33;;;;;;;;;;12963107;22;20212;-76
2021/05/05 01:28:02;;;;;;;7.80;2.27;;;;;;;;;;12963836;22;20178;-77
2021/05/05 01:33:05;;;;;;;7.97;2.13;;;;;;;;;;12964494;22;20422;-76
2021/05/05 01:38:09;;;;;;;7.87;2.27;;;;;;;;;;12970672;22;20265;-76
2021/05/05 01:43:11;;;;;;;9.27;2.20;;;;;;;;;;12968417;22;20187;-76
2021/05/05 01:48:15;;;;;;;7.90;2.40;;;;;;;;;;12945957;22;20825;-75
2021/05/05 01:53:18;;;;;;;9.07;2.00;;;;;;;;;;12967181;22;20182;-76
2021/05/05 01:58:23;;;;;;;9.50;2.60;;;;;;;;;;12995619;22;20174;-76
2021/05/05 02:03:26;;;;;;;9.70;2.47;;;;;;;;;;13033599;22;20224;-77
2021/05/05 02:08:30;;;;;;;10.23;2.57;;;;;;;;;;13033726;22;20197;-76
2021/05/05 02:13:33;;;;;;;8.97;2.43;;;;;;;;;;13012726;22;20257;-75
2021/05/05 02:18:36;;;;;;;10.43;2.43;;;;;;;;;;13009172;22;20208;-75
2021/05/05 02:23:39;;;;;;;8.40;2.73;;;;;;;;;;13013768;22;20178;-76
2021/05/05 02:28:41;;;;;;;10.87;2.60;;;;;;;;;;13033545;22;20256;-76
2021/05/05 02:33:43;;;;;;;8.30;2.30;;;;;;;;;;13033323;22;20174;-76
2021/05/05 02:38:46;;;;;;;9.83;2.47;;;;;;;;;;13027447;22;20201;-77
2021/05/05 02:43:48;;;;;;;7.27;2.30;;;;;;;;;;13012140;22;20177;-76
2021/05/05 02:48:49;;;;;;;11.57;2.63;;;;;;;;;;13030457;22;20213;-76
2021/05/05 02:53:52;;;;;;;9.20;2.70;;;;;;;;;;13035614;22;20622;-77
2021/05/05 02:58:54;;;;;;;7.93;2.37;;;;;;;;;;13010064;22;20244;-77
2021/05/05 03:03:56;;;;;;;8.33;2.43;;;;;;;;;;13010294;22;20193;-76
2021/05/05 03:08:59;;;;;;;9.50;2.33;;;;;;;;;;13009987;22;20657;-77
2021/05/05 03:14:01;;;;;;;9.60;2.40;;;;;;;;;;13012183;22;20231;-76
2021/05/05 03:19:03;;;;;;;5.53;2.00;;;;;;;;;;13018161;22;20284;-78
2021/05/05 03:53:36;;;;;;;13.87;2.50;;;;;;;;;;13007722;22;20182;-77
2021/05/05 03:58:38;;;;;;;8.33;2.10;;;;;;;;;;13031438;22;20174;-77
2021/05/05 04:03:40;;;;;;;9.67;2.47;;;;;;;;;;13007576;22;20201;-76
2021/05/05 04:08:43;;;;;;;10.13;2.30;;;;;;;;;;13013120;22;20176;-78
2021/05/05 04:13:45;;;;;;;10.80;2.07;;;;;;;;;;13008620;22;20221;-78
2021/05/05 04:19:04;;;;;;;9.87;2.33;;;;;;;;;;13008951;22;20529;-77
2021/05/05 04:24:25;;;;;;;14.43;2.70;;;;;;;;;;13009999;22;20607;-77
2021/05/05 04:29:27;;;;;;;13.00;2.53;;;;;;;;;;13007821;22;20247;-78
2021/05/05 04:34:29;;;;;;;16.03;3.33;;;;;;;;;;13031160;22;20184;-78
2021/05/05 04:39:31;;;;;;;15.63;3.10;;;;;;;;;;13009162;22;20206;-78
2021/05/05 04:44:33;;;;;;;10.23;2.73;;;;;;;;;;13027134;22;20186;-77
2021/05/05 04:49:35;;;;;;;7.87;2.73;;;;;;;;;;13010178;22;20174;-83
2021/05/05 04:54:38;;;;;;;8.37;2.67;;;;;;;;;;13007844;22;20189;-76
2021/05/05 04:59:40;;;;;;;13.40;3.43;;;;;;;;;;13027484;22;20983;-76
2021/05/05 05:04:43;;;;;;;11.43;2.83;;;;;;;;;;13030181;22;20208;-83
2021/05/05 05:09:50;;;;;;;10.07;2.30;;;;;;;;;;13031408;22;20178;-83
2021/05/05 05:14:53;;;;;;;11.53;2.20;;;;;;;;;;13028196;22;20173;-84
2021/05/05 05:19:55;;;;;;;8.07;2.53;;;;;;;;;;13009151;22;20670;-84
2021/05/05 05:25:00;;;;;;;10.37;2.73;;;;;;;;;;13007487;22;20174;-81
2021/05/05 05:30:03;;;;;;;8.43;2.30;;;;;;;;;;13025694;22;20196;-83
2021/05/05 05:35:05;;;;;;;10.40;2.63;;;;;;;;;;13008626;22;20234;-83
2021/05/05 05:40:09;;;;;;;11.87;2.90;;;;;;;;;;13009442;22;20696;-76
2021/05/05 05:45:11;;;;;;;9.20;2.60;;;;;;;;;;13007560;22;20260;-81
2021/05/05 05:50:14;;;;;;;7.37;2.30;;;;;;;;;;13011331;22;20178;-81
2021/05/05 05:55:17;;;;;;;9.53;2.43;;;;;;;;;;13029971;22;20192;-81
2021/05/05 06:00:20;;;;;;;8.40;2.40;;;;;;;;;;13008103;22;20621;-81
2021/05/05 06:05:21;;;;;;;10.53;2.73;;;;;;;;;;13030388;22;20209;-82
2021/05/05 06:10:24;;;;;;;10.73;2.70;;;;;;;;;;13032465;22;20686;-81
2021/05/05 06:15:26;;;;;;;9.87;2.70;;;;;;;;;;13006472;22;20177;-81
2021/05/05 06:20:28;;;;;;;8.70;2.50;;;;;;;;;;13036367;22;20202;-81
2021/05/05 06:25:31;;;;;;;9.30;2.63;;;;;;;;;;13011474;22;20185;-81
2021/05/05 06:30:34;;;;;;;12.27;2.30;;;;;;;;;;13011352;22;20843;-80
2021/05/05 06:35:36;;;;;;;8.93;2.40;;;;;;;;;;13034626;22;20181;-80
2021/05/05 06:40:39;;;;;;;9.07;2.80;;;;;;;;;;13034514;22;20205;-81
2021/05/05 06:45:41;;;;;;;10.37;2.73;;;;;;;;;;13033455;22;20178;-82
2021/05/05 06:50:44;;;;;;;7.90;2.53;;;;;;;;;;13033838;22;20582;-82
2021/05/05 06:55:46;;;;;;;8.77;2.50;;;;;;;;;;13035240;22;20186;-82
2021/05/05 07:00:48;;;;;;;6.63;2.40;;;;;;;;;;13030739;22;20611;-81
2021/05/05 07:05:50;;;;;;;6.77;2.20;;;;;;;;;;13014334;22;20285;-82
2021/05/05 07:10:53;;;;;;;9.13;2.10;;;;;;;;;;13032260;22;20182;-81
2021/05/05 07:15:55;;;;;;;7.37;1.97;;;;;;;;;;13031680;22;20174;-82
2021/05/05 07:20:58;;;;;;;8.57;2.03;;;;;;;;;;13034665;22;20201;-82
2021/05/05 07:26:01;;;;;;;8.03;2.17;;;;;;;;;;13039160;22;20181;-82
2021/05/05 07:31:06;;;;;;;7.93;2.00;;;;;;;;;;13034160;22;20209;-81
2021/05/05 07:36:13;;;;;;;11.17;2.33;;;;;;;;;;13038284;22;20184;-80
2021/05/05 07:46:42;;;;;;;6.43;1.90;;;;;;;;;;13035920;22;20176;-83
2021/05/05 07:51:44;;;;;;;7.80;2.30;;;;;;;;;;13016677;22;20169;-81
2021/05/05 07:56:46;;;;;;;6.23;2.13;;;;;;;;;;13038059;22;20204;-81
2021/05/05 08:01:47;;;;;;;8.13;2.47;;;;;;;;;;13034424;22;20292;-82
2021/05/05 08:06:49;;;;;;;5.93;1.90;;;;;;;;;;13038364;22;20181;-82
2021/05/05 08:11:52;;;;;;;8.00;2.13;;;;;;;;;;13036884;22;20178;-81
2021/05/05 08:16:54;;;;;;;11.87;2.37;;;;;;;;;;13035223;22;20257;-82
2021/05/05 08:21:56;;;;;;;7.07;2.27;;;;;;;;;;13036451;22;20202;-83
2021/05/05 08:26:59;;;;;;;7.37;2.10;;;;;;;;;;13038179;22;20696;-82
2021/05/05 08:32:01;;;;;;;9.43;2.60;;;;;;;;;;13031885;22;20182;-81
2021/05/05 08:37:03;;;;;;;9.60;2.53;;;;;;;;;;13038496;22;20213;-83
2021/05/05 08:42:06;;;;;;;9.93;2.47;;;;;;;;;;13035112;22;20228;-82
2021/05/05 08:47:08;;;;;;;9.47;2.20;;;;;;;;;;13035817;22;20183;-83
2021/05/05 08:52:10;;;;;;;7.13;2.07;;;;;;;;;;13035569;22;20185;-82
2021/05/05 08:57:15;;;;;;;7.57;2.60;;;;;;;;;;13015461;22;20184;-81
2021/05/05 09:02:18;;;;;;;12.57;2.23;;;;;;;;;;13033558;22;20220;-81
2021/05/05 09:07:30;;;;;;;5.33;1.77;;;;;;;;;;13039946;22;20576;-81
2021/05/05 09:12:35;;;;;;;4.27;1.70;;;;;;;;;;13034367;22;20170;-82
2021/05/05 09:17:38;;;;;;;6.07;1.67;;;;;;;;;;13013532;22;20174;-81
2021/05/05 09:22:41;;;;;;;5.23;1.80;;;;;;;;;;13036771;22;20665;-83
2021/05/05 09:27:43;;;;;;;10.63;2.30;;;;;;;;;;13037662;22;20174;-82
2021/05/05 09:32:50;;;;;;;9.77;2.17;;;;;;;;;;13034481;22;20180;-82
2021/05/05 09:37:56;;;;;;;8.07;2.20;;;;;;;;;;13039405;22;20488;-82
2021/05/05 09:43:13;;;;;;;8.63;2.37;;;;;;;;;;13037932;22;20204;-82
2021/05/05 09:48:21;;;;;;;6.90;2.30;;;;;;;;;;13039332;22;20178;-82
2021/05/05 09:53:24;;;;;;;7.80;2.20;;;;;;;;;;13038230;22;20184;-82
2021/05/05 09:58:28;;;;;;;9.00;2.60;;;;;;;;;;13013182;22;20177;-83
2021/05/05 10:03:36;;;;;;;12.40;2.67;;;;;;;;;;13039296;22;20210;-81
2021/05/05 10:08:38;;;;;;;14.73;3.20;;;;;;;;;;13039365;22;20169;-82
2021/05/05 10:13:41;;;;;;;13.97;3.00;;;;;;;;;;13040636;22;20177;-82
2021/05/05 10:18:45;;;;;;;8.80;2.60;;;;;;;;;;13014746;22;20185;-83
2021/05/05 10:23:52;;;;;;;10.77;2.47;;;;;;;;;;13037913;22;20213;-82
2021/05/05 10:28:55;;;;;;;12.07;2.87;;;;;;;;;;13016455;22;20169;-83
2021/05/05 10:34:00;;;;;;;12.40;2.60;;;;;;;;;;13038009;22;20494;-82
2021/05/05 10:39:25;;;;;;;16.17;2.77;;;;;;;;;;13038017;22;20169;-82
2021/05/05 10:44:34;;;;;;;12.97;2.93;;;;;;;;;;13036561;22;20177;-81
2021/05/05 10:50:02;;;;;;;10.30;2.50;;;;;;;;;;13013970;22;20327;-82
2021/05/05 10:55:07;;;;;;;11.23;2.90;;;;;;;;;;13036455;22;20519;-82
2021/05/05 11:00:12;;;;;;;15.47;2.80;;;;;;;;;;13009153;22;20245;-82
2021/05/05 11:05:14;;;;;;;10.07;2.80;;;;;;;;;;13036166;22;20223;-81
2021/05/05 11:10:31;;;;;;;10.83;3.00;;;;;;;;;;13036767;22;20173;-83
2021/05/05 11:15:54;;;;;;;10.77;2.80;;;;;;;;;;12981486;22;20203;-77
2021/05/05 11:20:57;;;;;;;13.23;3.03;;;;;;;;;;13014237;22;20669;-82
2021/05/05 11:26:18;;;;;;;11.83;2.87;;;;;;;;;;13013627;22;20176;-81
2021/05/05 11:31:20;;;;;;;12.03;3.03;;;;;;;;;;13033706;22;20787;-82
2021/05/05 11:36:23;;;;;;;12.00;3.03;;;;;;;;;;13035110;22;20216;-81
2021/05/05 11:41:25;;;;;;;13.77;3.30;;;;;;;;;;13016578;22;20209;-82
2021/05/05 11:46:28;;;;;;;14.27;3.33;;;;;;;;;;13031934;22;20285;-81
2021/05/05 11:51:30;;;;;;;12.87;3.20;;;;;;;;;;13035726;22;20181;-81
2021/05/05 11:56:32;;;;;;;12.07;2.90;;;;;;;;;;13013840;22;20702;-84
2021/05/05 12:01:36;;;;;;;14.30;2.90;;;;;;;;;;13013050;22;20372;-82
2021/05/05 12:06:48;;;;;;;10.73;2.90;;;;;;;;;;13034370;22;20260;-83
2021/05/05 12:12:06;;;;;;;8.30;2.70;;;;;;;;;;13037982;22;20174;-83
2021/05/05 12:17:14;;;;;;;11.00;2.80;;;;;;;;;;13032840;22;20183;-83
2021/05/05 12:22:17;;;;;;;11.87;2.60;;;;;;;;;;13037341;22;20185;-83
2021/05/05 12:27:20;;;;;;;10.67;2.60;;;;;;;;;;13034926;22;20177;-83
2021/05/05 12:32:23;;;;;;;15.83;2.90;;;;;;;;;;13033130;22;20179;-83
2021/05/05 12:37:25;;;;;;;10.37;2.73;;;;;;;;;;13035043;22;20192;-83
2021/05/05 12:42:32;;;;;;;13.70;2.87;;;;;;;;;;13036496;22;20572;-83
2021/05/05 12:47:34;;;;;;;8.97;2.50;;;;;;;;;;13031239;22;20661;-83
2021/05/05 12:52:37;;;;;;;11.40;2.67;;;;;;;;;;13036291;22;20268;-83
2021/05/05 12:57:39;;;;;;;11.40;3.07;;;;;;;;;;13032878;22;20261;-82
2021/05/05 13:02:42;;;;;;;13.97;2.80;;;;;;;;;;13033581;22;20693;-78
2021/05/05 13:07:44;;;;;;;10.93;2.63;;;;;;;;;;13036786;22;20169;-78
2021/05/05 13:12:58;;;;;;;14.43;3.33;;;;;;;;;;13031299;22;20178;-78
2021/05/05 13:18:19;;;;;;;11.23;2.87;;;;;;;;;;13034849;22;20172;-82
2021/05/05 13:34:14;;;;;;;10.20;2.73;;;;;;;;;;13016583;22;20169;-82
2021/05/05 13:39:16;;;;;;;11.07;2.80;;;;;;;;;;13014843;22;20170;-81
2021/05/05 13:44:27;;;;;;;11.73;2.67;;;;;;;;;;13036359;22;20212;-83
2021/05/05 13:49:33;;;;;;;6.80;2.37;;;;;;;;;;13034921;22;20715;-82
2021/05/05 13:54:35;;;;;;;8.80;2.60;;;;;;;;;;13018628;22;20204;-84
2021/05/05 13:59:38;;;;;;;10.90;2.90;;;;;;;;;;13037043;22;20177;-84
2021/05/05 14:04:41;;;;;;;10.33;3.00;;;;;;;;;;13019192;22;20320;-82
2021/05/05 14:09:43;;;;;;;11.27;2.50;;;;;;;;;;13039827;22;20196;-88
2021/05/05 14:14:45;;;;;;;9.37;2.70;;;;;;;;;;13046080;22;20185;-87
2021/05/05 14:19:48;;;;;;;10.73;2.57;;;;;;;;;;13015818;22;20831;-83
2021/05/05 14:24:50;;;;;;;10.87;2.60;;;;;;;;;;13038334;22;20177;-83
2021/05/05 14:29:52;;;;;;;8.77;2.40;;;;;;;;;;13035481;22;20173;-86
2021/05/05 14:34:54;;;;;;;7.10;2.10;;;;;;;;;;13039584;22;20519;-84
2021/05/05 14:39:59;;;;;;;8.07;2.30;;;;;;;;;;13037832;22;20174;-85
2021/05/05 14:45:10;;;;;;;11.73;2.43;;;;;;;;;;13035966;22;20174;-84
2021/05/05 14:50:13;;;;;;;7.47;2.40;;;;;;;;;;13036122;22;20245;-84
2021/05/05 14:55:16;;;;;;;8.73;2.27;;;;;;;;;;13036526;22;20527;-86
2021/05/05 15:00:18;;;;;;;7.57;2.37;;;;;;;;;;13034403;22;20225;-84
2021/05/05 15:05:23;;;;;;;7.00;2.17;;;;;;;;;;13016982;22;20659;-85
2021/05/05 15:10:42;;;;;;;7.47;2.27;;;;;;;;;;13038437;22;20176;-84
2021/05/05 15:16:12;;;;;;;8.73;2.30;;;;;;;;;;13038921;22;20528;-84
2021/05/05 15:37:19;;;;;;;8.27;2.53;;;;;;;;;;13018570;22;20170;-87
2021/05/05 15:42:21;;;;;;;9.20;2.50;;;;;;;;;;13042812;22;20757;-91
2021/05/05 15:47:23;;;;;;;10.10;2.40;;;;;;;;;;13025252;22;20188;-89
2021/05/05 15:52:31;;;;;;;8.03;2.60;;;;;;;;;;13034860;22;20660;-87
2021/05/05 15:57:33;;;;;;;9.53;2.47;;;;;;;;;;13042598;22;20494;-91
2021/05/05 16:03:00;;;;;;;11.40;2.80;;;;;;;;;;13042855;22;20919;-89
2021/05/05 16:13:35;;;;;;;8.53;2.37;;;;;;;;;;13042633;22;20224;-88
2021/05/05 16:18:43;;;;;;;7.73;2.20;;;;;;;;;;13043762;22;20166;-86
2021/05/05 16:24:06;;;;;;;10.17;2.47;;;;;;;;;;13044756;22;20200;-86
2021/05/05 16:56:12;;;;;;;13.07;2.40;;;;;;;;;;13043504;22;20293;-85
2021/05/05 17:01:25;;;;;;;8.07;2.33;;;;;;;;;;13015621;22;20213;-86
2021/05/05 17:11:48;;;;;;;8.90;2.40;;;;;;;;;;13019771;22;20220;-86
2021/05/05 17:16:51;;;;;;;10.00;2.13;;;;;;;;;;13040331;22;20177;-89
2021/05/05 17:21:57;;;;;;;8.10;2.63;;;;;;;;;;13042870;22;20189;-89
2021/05/05 17:27:04;;;;;;;9.13;2.77;;;;;;;;;;13036358;22;20209;-89
2021/05/05 17:43:12;;;;;;;9.83;2.80;;;;;;;;;;13042303;22;20538;-89
2021/05/05 18:15:03;;;;;;;6.73;2.10;;;;;;;;;;13041403;22;20634;-87
2021/05/05 18:20:08;;;;;;;11.30;2.40;;;;;;;;;;13044685;22;20197;-88
2021/05/05 18:25:30;;;;;;;5.73;2.13;;;;;;;;;;13047964;22;20184;-89
2021/05/05 18:30:33;;;;;;;8.97;2.40;;;;;;;;;;13046326;22;20177;-90
2021/05/05 18:35:35;;;;;;;7.20;2.37;;;;;;;;;;13049526;22;20216;-87
2021/05/05 18:40:48;;;;;;;8.43;2.20;;;;;;;;;;13046460;22;20539;-89
2021/05/05 20:39:05;;;;;;;7.90;3.17;;;;;;;;;;13010553;22;20188;-80
2021/05/05 23:15:20;;;;;;;2.10;1.53;;;;;;;;;;12974576;22;20564;-80
2021/05/05 23:26:04;;;;;;;2.40;1.60;;;;;;;;;;13033015;22;20173;-79
2021/05/05 23:31:21;;;;;;;2.47;1.80;;;;;;;;;;13034266;22;20178;-80
2021/05/05 23:36:56;;;;;;;2.37;1.90;;;;;;;;;;13036076;22;20173;-80
